createdAt,value
2024-05-09T00:01:47.014Z,6.30
2024-05-09T00:04:16.966Z,5.90
2024-05-09T00:06:49.542Z,7.07
2024-05-09T00:09:19.356Z,6.10
2024-05-09T00:11:49.301Z,6.10
2024-05-09T00:14:19.302Z,6.17
2024-05-09T00:16:49.657Z,6.30
2024-05-09T00:19:19.777Z,5.20
2024-05-09T00:21:52.479Z,7.77
2024-05-09T00:24:22.387Z,5.20
2024-05-09T00:26:52.276Z,5.40
2024-05-09T00:29:22.301Z,5.00
2024-05-09T00:31:52.318Z,7.77
2024-05-09T00:34:22.351Z,5.57
2024-05-09T00:36:54.943Z,5.37
2024-05-09T00:39:24.793Z,5.57
2024-05-09T00:41:54.667Z,5.33
2024-05-09T00:44:24.726Z,5.50
2024-05-09T00:46:56.295Z,8.57
2024-05-09T00:49:26.996Z,6.43
2024-05-09T00:52:00.423Z,5.60
2024-05-09T00:54:30.991Z,8.00
2024-05-09T00:57:00.899Z,6.53
2024-05-09T00:59:32.605Z,11.63
2024-05-09T01:02:03.368Z,5.60
2024-05-09T01:04:33.383Z,5.40
2024-05-09T01:07:06.053Z,6.23
2024-05-09T01:09:36.005Z,5.97
2024-05-09T01:12:06.182Z,5.93
2024-05-09T01:14:39.612Z,6.10
2024-05-09T01:17:09.914Z,6.13
2024-05-09T01:19:40.119Z,5.80
2024-05-09T01:22:12.695Z,7.13
2024-05-09T01:24:45.209Z,5.80
2024-05-09T01:27:15.093Z,5.37
2024-05-09T01:29:44.921Z,5.10
2024-05-09T01:32:14.929Z,5.13
2024-05-09T01:34:44.994Z,5.83
2024-05-09T01:37:14.824Z,5.00
2024-05-09T01:39:47.299Z,5.50
2024-05-09T01:42:17.611Z,5.60
2024-05-09T01:44:47.537Z,6.50
2024-05-09T01:47:17.521Z,4.70
2024-05-09T01:49:47.495Z,4.93
2024-05-09T01:52:17.421Z,5.10
2024-05-09T01:54:49.946Z,5.30
2024-05-09T01:57:19.823Z,5.87
2024-05-09T01:59:49.679Z,5.17
2024-05-09T02:02:19.698Z,5.53
2024-05-09T02:04:50.411Z,5.77
2024-05-09T02:07:20.671Z,5.73
2024-05-09T02:09:54.514Z,5.37
2024-05-09T02:12:24.564Z,5.10
2024-05-09T02:14:54.698Z,5.50
2024-05-09T02:17:24.725Z,5.20
2024-05-09T02:19:54.752Z,5.03
2024-05-09T02:22:24.647Z,5.57
2024-05-09T02:24:57.240Z,5.33
2024-05-09T02:27:27.152Z,5.10
2024-05-09T02:29:57.142Z,5.40
2024-05-09T02:32:27.106Z,5.70
2024-05-09T02:34:57.163Z,5.67
2024-05-09T02:37:27.089Z,6.57
2024-05-09T02:39:57.056Z,5.43
2024-05-09T02:42:26.921Z,6.47
2024-05-09T02:44:54.299Z,5.80
2024-05-09T02:47:24.348Z,6.23
2024-05-09T02:49:51.754Z,7.60
2024-05-09T02:52:21.932Z,5.50
2024-05-09T02:54:49.267Z,5.53
2024-05-09T02:57:21.738Z,5.33
2024-05-09T02:59:49.024Z,5.77
2024-05-09T03:02:19.032Z,6.30
2024-05-09T03:04:46.451Z,5.77
2024-05-09T03:07:17.868Z,7.10
2024-05-09T03:09:46.969Z,5.50
2024-05-09T03:12:16.906Z,5.90
2024-05-09T03:14:49.672Z,6.47
2024-05-09T03:17:19.598Z,9.87
2024-05-09T03:19:47.001Z,7.60
2024-05-09T03:22:16.856Z,7.93
2024-05-09T03:24:44.117Z,7.47
2024-05-09T03:27:13.943Z,9.87
2024-05-09T03:29:41.175Z,15.20
2024-05-09T03:32:13.952Z,23.47
2024-05-09T03:34:41.334Z,21.73
2024-05-09T03:37:11.141Z,17.00
2024-05-09T03:39:41.045Z,24.20
2024-05-09T03:42:10.934Z,25.37
2024-05-09T03:44:39.013Z,31.63
2024-05-09T03:47:08.947Z,31.97
2024-05-09T03:49:38.891Z,33.50
2024-05-09T03:52:09.294Z,36.53
2024-05-09T03:54:36.526Z,33.90
2024-05-09T03:57:06.848Z,38.30
2024-05-09T03:59:34.220Z,33.77
2024-05-09T04:02:06.502Z,37.27
2024-05-09T04:04:34.152Z,40.87
2024-05-09T04:07:06.918Z,38.87
2024-05-09T04:09:34.309Z,38.60
2024-05-09T04:12:04.291Z,43.57
2024-05-09T04:14:31.809Z,40.20
2024-05-09T04:17:01.808Z,42.20
2024-05-09T04:19:29.174Z,40.77
2024-05-09T04:21:59.018Z,38.87
2024-05-09T04:24:29.054Z,39.80
2024-05-09T04:26:58.915Z,37.43
2024-05-09T04:29:26.260Z,34.17
2024-05-09T04:31:56.264Z,36.07
2024-05-09T04:34:23.650Z,33.30
2024-05-09T04:36:54.837Z,31.80
2024-05-09T04:39:22.224Z,32.03
2024-05-09T04:41:54.746Z,34.53
2024-05-09T04:44:22.182Z,30.90
2024-05-09T04:46:52.054Z,28.17
2024-05-09T04:49:19.611Z,27.77
2024-05-09T04:51:49.684Z,28.07
2024-05-09T04:54:26.460Z,25.27
2024-05-09T04:57:06.796Z,22.70
2024-05-09T04:59:34.264Z,22.63
2024-05-09T05:02:04.305Z,21.40
2024-05-09T05:04:31.712Z,19.10
2024-05-09T05:07:02.811Z,21.73
2024-05-09T05:09:30.570Z,18.20
2024-05-09T05:12:02.949Z,18.57
2024-05-09T05:14:33.058Z,17.37
2024-05-09T05:17:03.055Z,18.43
2024-05-09T05:19:30.623Z,17.83
2024-05-09T05:22:00.701Z,16.97
2024-05-09T05:24:27.946Z,16.93
2024-05-09T05:26:57.747Z,16.73
2024-05-09T05:29:25.082Z,16.60
2024-05-09T05:31:57.802Z,15.77
2024-05-09T05:34:25.114Z,16.77
2024-05-09T05:36:54.937Z,16.47
2024-05-09T05:39:24.845Z,15.30
2024-05-09T05:41:52.108Z,14.83
2024-05-09T05:44:22.039Z,16.10
2024-05-09T05:46:49.358Z,13.67
2024-05-09T05:49:21.885Z,13.73
2024-05-09T05:51:49.354Z,13.77
2024-05-09T05:54:19.152Z,12.40
2024-05-09T05:56:46.424Z,12.53
2024-05-09T05:59:16.444Z,13.23
2024-05-09T06:01:43.681Z,14.80
2024-05-09T06:04:13.649Z,14.30
2024-05-09T06:06:43.599Z,11.37
2024-05-09T06:09:13.493Z,11.57
2024-05-09T06:11:41.319Z,12.40
2024-05-09T06:14:11.884Z,11.27
2024-05-09T06:16:39.161Z,12.40
2024-05-09T06:19:09.075Z,10.43
2024-05-09T06:21:36.480Z,13.57
2024-05-09T06:24:09.072Z,12.53
2024-05-09T06:26:36.417Z,12.43
2024-05-09T06:29:06.437Z,12.00
2024-05-09T06:31:33.819Z,12.43
2024-05-09T06:34:04.413Z,12.17
2024-05-09T06:36:31.787Z,12.30
2024-05-09T06:39:01.592Z,12.23
2024-05-09T06:41:31.573Z,13.83
2024-05-09T06:44:01.579Z,14.97
2024-05-09T06:46:29.512Z,16.37
2024-05-09T06:49:04.375Z,12.97
2024-05-09T06:51:31.811Z,11.83
2024-05-09T06:54:01.610Z,13.70
2024-05-09T06:56:31.649Z,13.20
2024-05-09T06:59:01.647Z,11.90
2024-05-09T07:01:29.047Z,12.30
2024-05-09T07:03:59.177Z,22.57
2024-05-09T07:06:26.555Z,11.67
2024-05-09T07:08:56.439Z,12.87
2024-05-09T07:11:23.930Z,12.20
2024-05-09T07:13:56.607Z,11.50
2024-05-09T07:16:23.986Z,11.77
2024-05-09T07:18:55.191Z,11.33
2024-05-09T07:21:22.574Z,11.30
2024-05-09T07:23:52.525Z,13.73
2024-05-09T07:26:19.862Z,10.23
2024-05-09T07:28:49.767Z,10.47
2024-05-09T07:31:20.170Z,10.33
2024-05-09T07:33:50.040Z,11.10
2024-05-09T07:36:17.389Z,7.97
2024-05-09T07:38:47.305Z,9.77
2024-05-09T07:41:14.785Z,9.60
2024-05-09T07:43:44.666Z,8.83
2024-05-09T07:47:13.723Z,9.60
2024-05-09T07:53:14.358Z,7.83
2024-05-09T07:54:29.577Z,9.07
2024-05-09T07:56:57.185Z,8.20
2024-05-09T07:59:27.198Z,9.10
2024-05-09T08:01:54.530Z,7.10
2024-05-09T08:04:27.172Z,7.10
2024-05-09T08:06:54.574Z,6.97
2024-05-09T08:09:24.501Z,6.57
2024-05-09T08:11:52.822Z,6.40
2024-05-09T08:14:22.693Z,6.80
2024-05-09T08:16:50.173Z,7.70
2024-05-09T08:19:20.272Z,7.27
2024-05-09T08:21:50.343Z,9.37
2024-05-09T08:24:20.205Z,7.40
2024-05-09T08:26:47.522Z,5.53
2024-05-09T08:29:17.452Z,7.13
2024-05-09T08:31:44.809Z,6.63
2024-05-09T08:34:14.910Z,6.67
2024-05-09T08:36:42.444Z,5.33
2024-05-09T08:39:14.914Z,6.00
2024-05-09T08:41:42.823Z,7.13
2024-05-09T08:44:12.676Z,6.13
2024-05-09T08:46:41.766Z,5.60
2024-05-09T08:49:12.807Z,7.27
2024-05-09T08:51:40.198Z,4.40
2024-05-09T08:54:10.103Z,7.70
2024-05-09T08:56:45.313Z,5.67
2024-05-09T08:59:23.264Z,5.72
2024-05-09T09:01:51.116Z,4.77
2024-05-09T09:04:21.570Z,4.13
2024-05-09T09:06:52.005Z,4.33
2024-05-09T09:09:23.326Z,6.57
2024-05-09T09:11:53.319Z,6.20
2024-05-09T09:14:23.158Z,4.97
2024-05-09T09:16:51.836Z,4.87
2024-05-09T09:19:21.873Z,5.47
2024-05-09T09:21:49.254Z,5.03
2024-05-09T09:24:19.109Z,3.43
2024-05-09T09:26:46.388Z,4.07
2024-05-09T09:29:22.545Z,4.27
2024-05-09T09:31:58.350Z,3.53
2024-05-09T09:34:31.192Z,4.83
2024-05-09T09:37:05.064Z,4.73
2024-05-09T09:39:35.990Z,4.00
2024-05-09T09:42:04.452Z,3.63
2024-05-09T09:44:39.585Z,4.60
2024-05-09T09:47:09.684Z,4.37
2024-05-09T09:49:40.267Z,3.83
2024-05-09T09:52:11.024Z,5.30
2024-05-09T09:54:41.920Z,5.40
2024-05-09T09:57:09.201Z,4.97
2024-05-09T09:59:43.826Z,6.23
2024-05-09T10:02:11.296Z,6.07
2024-05-09T10:04:41.477Z,4.73
2024-05-09T10:07:10.721Z,4.93
2024-05-09T10:09:40.740Z,4.27
2024-05-09T10:12:13.656Z,4.30
2024-05-09T10:14:50.998Z,5.07
2024-05-09T10:17:18.343Z,5.13
2024-05-09T10:19:48.769Z,6.77
2024-05-09T10:22:26.788Z,5.40
2024-05-09T10:24:57.557Z,5.57
2024-05-09T10:27:29.337Z,5.13
2024-05-09T10:30:06.878Z,4.37
2024-05-09T10:32:39.848Z,7.00
2024-05-09T10:35:11.711Z,5.57
2024-05-09T10:37:39.438Z,5.10
2024-05-09T10:40:14.379Z,4.77
2024-05-09T10:42:48.220Z,7.37
2024-05-09T10:45:21.537Z,6.33
2024-05-09T10:47:48.920Z,8.07
2024-05-09T10:50:25.662Z,6.77
2024-05-09T10:52:56.302Z,6.80
2024-05-09T10:55:26.243Z,5.93
2024-05-09T10:57:53.747Z,6.50
2024-05-09T11:00:36.019Z,7.70
2024-05-09T11:03:04.470Z,5.33
2024-05-09T11:05:34.900Z,6.17
2024-05-09T11:08:02.488Z,7.17
2024-05-09T11:10:34.367Z,6.10
2024-05-09T11:13:02.087Z,5.90
2024-05-09T11:15:43.199Z,5.20
2024-05-09T11:18:24.650Z,5.70
2024-05-09T11:20:56.323Z,7.03
2024-05-09T11:23:26.214Z,7.23
2024-05-09T11:25:57.507Z,4.57
2024-05-09T11:28:26.982Z,5.00
2024-05-09T11:31:09.666Z,6.60
2024-05-09T11:33:38.341Z,5.97
2024-05-09T11:36:09.339Z,4.13
2024-05-09T11:38:36.847Z,8.27
2024-05-09T11:41:07.693Z,5.07
2024-05-09T11:43:35.078Z,5.60
2024-05-09T11:46:07.915Z,4.17
2024-05-09T11:48:35.425Z,4.63
2024-05-09T11:51:05.389Z,3.97
2024-05-09T11:53:32.766Z,3.60
2024-05-09T11:56:02.827Z,4.40
2024-05-09T11:58:34.385Z,4.20
2024-05-09T12:01:07.214Z,4.33
2024-05-09T12:03:35.280Z,4.97
2024-05-09T12:06:05.464Z,4.50
2024-05-09T12:08:33.096Z,3.50
2024-05-09T12:11:03.296Z,4.90
2024-05-09T12:13:30.749Z,4.20
2024-05-09T12:16:00.833Z,5.60
2024-05-09T12:18:31.576Z,4.70
2024-05-09T12:21:01.458Z,5.23
2024-05-09T12:23:28.703Z,4.97
2024-05-09T12:25:58.582Z,4.50
2024-05-09T12:28:26.585Z,4.83
2024-05-09T12:30:56.482Z,3.53
2024-05-09T12:33:23.942Z,5.37
2024-05-09T12:35:56.519Z,6.10
2024-05-09T12:38:23.891Z,4.27
2024-05-09T12:40:54.175Z,7.63
2024-05-09T12:43:21.791Z,4.07
2024-05-09T12:45:51.812Z,7.13
2024-05-09T12:48:19.349Z,4.97
2024-05-09T12:50:49.381Z,6.27
2024-05-09T12:53:19.367Z,7.57
2024-05-09T12:55:56.601Z,6.53
2024-05-09T12:58:27.793Z,5.60
2024-05-09T13:00:57.783Z,5.63
2024-05-09T13:03:25.270Z,7.63
2024-05-09T13:05:55.324Z,6.77
2024-05-09T13:08:25.306Z,121.50
2024-05-09T13:10:55.343Z,50.80
2024-05-09T13:13:22.823Z,5.00
2024-05-09T13:15:52.770Z,5.93
2024-05-09T13:18:20.140Z,7.50
2024-05-09T13:20:53.098Z,5.47
2024-05-09T13:23:20.334Z,5.87
2024-05-09T13:25:52.869Z,4.90
2024-05-09T13:28:21.119Z,5.67
2024-05-09T13:30:51.065Z,5.90
2024-05-09T13:33:18.609Z,5.97
2024-05-09T13:35:50.653Z,6.70
2024-05-09T13:38:21.559Z,5.97
2024-05-09T13:40:54.227Z,6.20
2024-05-09T13:43:23.241Z,6.33
2024-05-09T13:45:55.227Z,5.50
2024-05-09T13:48:22.679Z,6.23
2024-05-09T13:50:52.554Z,6.32
2024-05-09T13:53:19.799Z,7.23
2024-05-09T13:55:49.924Z,5.13
2024-05-09T13:58:19.929Z,5.93
2024-05-09T14:00:49.911Z,6.90
2024-05-09T14:03:19.746Z,6.80
2024-05-09T14:05:52.295Z,5.87
2024-05-09T14:08:22.642Z,5.37
2024-05-09T14:10:53.771Z,5.77
2024-05-09T14:13:23.868Z,8.70
2024-05-09T14:15:53.957Z,5.07
2024-05-09T14:18:21.458Z,5.27
2024-05-09T14:20:51.335Z,5.23
2024-05-09T14:23:18.738Z,5.40
2024-05-09T14:25:52.078Z,6.60
2024-05-09T14:28:31.625Z,6.90
2024-05-09T14:31:01.298Z,5.47
2024-05-09T14:33:31.533Z,5.83
2024-05-09T14:35:59.156Z,5.97
2024-05-09T14:38:30.357Z,6.57
2024-05-09T14:40:58.071Z,5.53
2024-05-09T14:43:28.329Z,6.83
2024-05-09T14:45:58.445Z,6.50
2024-05-09T14:48:28.438Z,9.77
2024-05-09T14:50:55.697Z,5.53
2024-05-09T14:53:27.159Z,7.13
2024-05-09T14:55:54.688Z,9.23
2024-05-09T14:58:24.777Z,6.70
2024-05-09T15:00:52.532Z,9.63
2024-05-09T15:03:25.186Z,7.60
2024-05-09T15:05:52.738Z,9.13
2024-05-09T15:08:23.216Z,6.83
2024-05-09T15:10:50.924Z,10.20
2024-05-09T15:13:21.353Z,7.27
2024-05-09T15:15:50.003Z,7.00
2024-05-09T15:18:20.409Z,7.07
2024-05-09T15:20:50.628Z,9.37
2024-05-09T15:23:20.706Z,7.43
2024-05-09T15:25:48.081Z,9.33
2024-05-09T15:28:18.619Z,8.37
2024-05-09T15:30:46.986Z,8.83
2024-05-09T15:33:17.453Z,11.20
2024-05-09T15:35:46.800Z,10.27
2024-05-09T15:38:19.917Z,10.20
2024-05-09T15:40:47.429Z,11.30
2024-05-09T15:43:17.435Z,9.47
2024-05-09T15:45:45.078Z,9.00
2024-05-09T15:48:15.180Z,8.80
2024-05-09T15:50:43.249Z,10.07
2024-05-09T15:53:14.222Z,8.70
2024-05-09T15:55:44.139Z,9.83
2024-05-09T15:58:14.484Z,11.57
2024-05-09T16:00:44.156Z,7.80
2024-05-09T16:03:16.187Z,9.97
2024-05-09T16:05:44.756Z,9.90
2024-05-09T16:08:15.614Z,9.50
2024-05-09T16:10:47.385Z,8.73
2024-05-09T16:13:19.774Z,12.97
2024-05-09T16:15:47.573Z,11.20
2024-05-09T16:18:17.826Z,12.53
2024-05-09T16:20:48.266Z,9.67
2024-05-09T16:23:20.107Z,10.33
2024-05-09T16:25:51.512Z,11.93
2024-05-09T16:28:23.046Z,10.83
2024-05-09T16:30:51.876Z,10.67
2024-05-09T16:33:23.881Z,12.73
2024-05-09T16:35:51.715Z,12.90
2024-05-09T16:38:22.014Z,9.90
2024-05-09T16:40:52.096Z,12.03
2024-05-09T16:43:22.576Z,13.80
2024-05-09T16:45:51.143Z,12.83
2024-05-09T16:48:21.432Z,13.87
2024-05-09T16:50:49.307Z,12.33
2024-05-09T16:53:19.173Z,12.77
2024-05-09T16:55:46.522Z,15.03
2024-05-09T16:58:19.606Z,14.87
2024-05-09T17:00:47.094Z,14.83
2024-05-09T17:03:18.243Z,12.83
2024-05-09T17:05:47.269Z,15.03
2024-05-09T17:08:18.523Z,15.63
2024-05-09T17:10:47.575Z,18.40
2024-05-09T17:13:20.901Z,18.70
2024-05-09T17:15:51.406Z,15.60
2024-05-09T17:18:21.730Z,14.93
2024-05-09T17:20:50.341Z,18.50
2024-05-09T17:23:20.329Z,16.27
2024-05-09T17:25:47.714Z,16.47
2024-05-09T17:28:20.662Z,16.87
2024-05-09T17:30:48.657Z,19.23
2024-05-09T17:33:18.701Z,18.03
2024-05-09T17:35:50.235Z,18.40
2024-05-09T17:38:22.912Z,20.40
2024-05-09T17:40:50.975Z,16.93
2024-05-09T17:43:23.898Z,19.97
2024-05-09T17:45:51.366Z,18.67
2024-05-09T17:48:21.741Z,21.80
2024-05-09T17:50:49.185Z,18.07
2024-05-09T17:53:20.171Z,17.20
2024-05-09T17:55:48.785Z,19.20
2024-05-09T17:58:18.975Z,21.47
2024-05-09T18:00:48.965Z,19.77
2024-05-09T18:03:19.044Z,19.93
2024-05-09T18:05:46.521Z,18.50
2024-05-09T18:08:16.621Z,22.40
2024-05-09T18:10:46.625Z,22.43
2024-05-09T18:13:14.331Z,20.53
2024-05-09T18:15:45.254Z,21.43
2024-05-09T18:18:15.743Z,23.80
2024-05-09T18:20:46.468Z,25.70
2024-05-09T18:23:16.468Z,23.73
2024-05-09T18:25:48.366Z,20.97
2024-05-09T18:28:16.718Z,26.60
2024-05-09T18:30:47.179Z,22.77
2024-05-09T18:33:17.423Z,22.73
2024-05-09T18:35:47.845Z,23.50
2024-05-09T18:38:15.260Z,26.70
2024-05-09T18:40:48.345Z,20.67
2024-05-09T18:43:17.156Z,22.60
2024-05-09T18:45:47.686Z,27.50
2024-05-09T18:48:17.836Z,24.00
2024-05-09T18:50:48.190Z,28.20
2024-05-09T18:53:16.188Z,27.20
2024-05-09T18:55:46.043Z,23.57
2024-05-09T18:58:13.460Z,22.87
2024-05-09T19:00:46.015Z,24.00
2024-05-09T19:03:18.651Z,27.07
2024-05-09T19:05:49.017Z,25.80
2024-05-09T19:08:16.339Z,27.43
2024-05-09T19:10:47.051Z,26.40
2024-05-09T19:13:15.023Z,25.30
2024-05-09T19:15:45.360Z,24.03
2024-05-09T19:18:14.116Z,25.23
2024-05-09T19:20:47.323Z,25.37
2024-05-09T19:23:14.741Z,25.17
2024-05-09T19:25:44.543Z,24.53
2024-05-09T19:28:11.843Z,21.37
2024-05-09T19:30:42.943Z,21.70
2024-05-09T19:33:12.803Z,25.60
2024-05-09T19:35:46.325Z,21.83
2024-05-09T19:38:13.703Z,22.63
2024-05-09T19:40:43.713Z,20.27
2024-05-09T19:43:11.330Z,22.17
2024-05-09T19:45:41.497Z,22.67
2024-05-09T19:48:09.126Z,31.27
2024-05-09T19:50:43.240Z,21.27
2024-05-09T19:53:14.960Z,20.73
2024-05-09T19:55:45.354Z,20.40
2024-05-09T19:58:13.241Z,18.47
2024-05-09T20:00:44.534Z,16.50
2024-05-09T20:03:15.250Z,21.27
2024-05-09T20:05:48.580Z,16.13
2024-05-09T20:08:18.701Z,14.70
2024-05-09T20:10:48.736Z,13.67
2024-05-09T20:13:16.106Z,13.30
2024-05-09T20:15:45.999Z,16.17
2024-05-09T20:18:13.527Z,13.40
2024-05-09T20:20:45.155Z,16.93
2024-05-09T20:23:13.715Z,14.83
2024-05-09T20:25:46.187Z,12.73
2024-05-09T20:28:13.609Z,16.93
2024-05-09T20:30:43.627Z,13.23
2024-05-09T20:33:12.417Z,14.70
2024-05-09T20:35:42.719Z,13.70
2024-05-09T20:38:10.070Z,17.23
2024-05-09T20:40:40.281Z,14.07
2024-05-09T20:43:11.031Z,14.53
2024-05-09T20:45:41.285Z,16.07
2024-05-09T20:48:09.457Z,15.37
2024-05-09T20:50:41.985Z,14.93
2024-05-09T20:53:11.388Z,13.60
2024-05-09T20:55:41.734Z,15.07
2024-05-09T20:58:12.201Z,15.03
2024-05-09T21:00:44.960Z,12.90
2024-05-09T21:03:16.128Z,14.90
2024-05-09T21:05:47.698Z,15.40
2024-05-09T21:08:15.666Z,13.00
2024-05-09T21:10:45.660Z,15.97
2024-05-09T21:13:15.650Z,13.10
2024-05-09T21:15:45.732Z,12.73
2024-05-09T21:18:13.090Z,15.70
2024-05-09T21:20:42.998Z,14.10
2024-05-09T21:23:10.439Z,12.83
2024-05-09T21:25:40.299Z,11.83
2024-05-09T21:28:07.857Z,13.97
2024-05-09T21:30:42.789Z,10.53
2024-05-09T21:33:12.773Z,11.30
2024-05-09T21:35:44.800Z,11.00
2024-05-09T21:38:14.138Z,12.10
2024-05-09T21:40:45.400Z,9.83
2024-05-09T21:43:12.998Z,14.60
2024-05-09T21:45:45.622Z,11.63
2024-05-09T21:48:13.513Z,10.63
2024-05-09T21:50:43.545Z,15.20
2024-05-09T21:53:11.856Z,12.30
2024-05-09T21:55:42.173Z,16.03
2024-05-09T21:58:10.542Z,14.03
2024-05-09T22:00:42.935Z,17.40
2024-05-09T22:03:13.812Z,14.10
2024-05-09T22:05:44.970Z,17.20
2024-05-09T22:08:13.070Z,14.63
2024-05-09T22:10:43.092Z,16.50
2024-05-09T22:13:10.500Z,18.30
2024-05-09T22:15:41.572Z,17.17
2024-05-09T22:18:10.248Z,14.50
2024-05-09T22:20:46.350Z,19.13
2024-05-09T22:23:15.152Z,19.23
2024-05-09T22:25:45.270Z,20.00
2024-05-09T22:28:14.450Z,19.57
2024-05-09T22:30:46.329Z,18.23
2024-05-09T22:33:15.180Z,16.20
2024-05-09T22:35:48.169Z,19.47
2024-05-09T22:38:15.539Z,19.97
2024-05-09T22:40:48.738Z,18.87
2024-05-09T22:43:19.813Z,19.97
2024-05-09T22:45:50.398Z,16.87
2024-05-09T22:48:18.350Z,18.73
2024-05-09T22:50:50.926Z,18.23
2024-05-09T22:53:18.521Z,19.03
2024-05-09T22:55:48.350Z,18.00
2024-05-09T22:58:15.815Z,21.37
2024-05-09T23:00:45.885Z,19.70
2024-05-09T23:03:15.824Z,19.43
2024-05-09T23:05:45.798Z,16.80
2024-05-09T23:08:15.652Z,18.33
2024-05-09T23:10:45.650Z,17.83
2024-05-09T23:13:13.296Z,19.17
2024-05-09T23:15:43.488Z,20.13
2024-05-09T23:18:11.371Z,18.03
2024-05-09T23:20:41.258Z,20.50
2024-05-09T23:23:10.165Z,18.47
2024-05-09T23:25:44.136Z,21.60
2024-05-09T23:28:11.702Z,17.90
2024-05-09T23:30:42.553Z,19.30
2024-05-09T23:33:11.317Z,19.07
2024-05-09T23:35:41.524Z,21.17
2024-05-09T23:38:08.800Z,15.90
2024-05-09T23:40:40.959Z,16.07
2024-05-09T23:43:12.905Z,16.10
2024-05-09T23:45:43.442Z,15.77
2024-05-09T23:48:11.247Z,17.43
2024-05-09T23:50:41.738Z,15.23
2024-05-09T23:53:10.141Z,13.83
2024-05-09T23:55:41.072Z,14.23
2024-05-09T23:58:08.799Z,15.60
